This is the latest recevied weather packets stored in our database for station/object DC4XK-10. If no packets are shown the sender has not sent any weather packets the latest 10 day(s).
| Time | Temp. | Humidity | Pressure | Rain* | Wind** | Luminosity | Snow |
|---|---|---|---|---|---|---|---|
| 1777557531 | 19.44° C | 37% | 1029.4 hPa | 0 mm | 0.45 m/s, 240° | - | - |
| 1777556931 | 19.44° C | 36% | 1029.6 hPa | 0 mm | 0 m/s | - | - |
| 1777556331 | 20° C | 35% | 1029.5 hPa | 0 mm | 0.89 m/s, 199° | - | - |
| 1777555731 | 20.56° C | 34% | 1029.6 hPa | 0 mm | 1.34 m/s, 301° | - | - |
| 1777555132 | 19.44° C | 34% | 1029.9 hPa | 0 mm | 0 m/s | - | - |
| 1777554531 | 20.56° C | 35% | 1029.8 hPa | 0 mm | 0.45 m/s, 317° | - | - |
| 1777553930 | 18.33° C | 36% | 1030 hPa | 0 mm | 1.34 m/s, 318° | - | - |
| 1777553333 | 20° C | 35% | 1030 hPa | 0 mm | 0.45 m/s, 191° | - | - |
| 1777552731 | 20° C | 34% | 1030.2 hPa | 0 mm | 0.89 m/s, 306° | - | - |
| 1777552130 | 20° C | 36% | 1030.2 hPa | 0 mm | 0 m/s | - | - |
| 1777551534 | 20° C | 36% | 1030.4 hPa | 0 mm | 0 m/s | - | - |
| 1777550931 | 18.33° C | 38% | 1030.3 hPa | 0 mm | 0 m/s | - | - |
| 1777550330 | 18.33° C | 39% | 1030.4 hPa | 0 mm | 2.24 m/s, 165° | - | - |
| 1777549732 | 17.78° C | 38% | 1030.4 hPa | 0 mm | 1.79 m/s, 320° | - | - |
| 1777549130 | 17.78° C | 39% | 1030.6 hPa | 0 mm | 1.34 m/s, 232° | - | - |
| 1777548531 | 18.33° C | 38% | 1030.5 hPa | 0 mm | 0 m/s | - | - |
| 1777547931 | 18.33° C | 37% | 1030.8 hPa | 0 mm | 0.45 m/s, 304° | - | - |
| 1777547330 | 18.89° C | 36% | 1030.5 hPa | 0 mm | 0.45 m/s, 268° | - | - |
| 1777546731 | 17.22° C | 39% | 1030.7 hPa | 0 mm | 0.89 m/s, 28° | - | - |
| 1777546131 | 17.22° C | 36% | 1030.7 hPa | 0 mm | 0.89 m/s, 286° | - | - |
| 1777545530 | 16.67° C | 37% | 1030.9 hPa | 0 mm | 1.79 m/s, 215° | - | - |
| 1777544931 | 17.22° C | 38% | 1031 hPa | 0 mm | 0.45 m/s, 189° | - | - |
| 1777544330 | 17.22° C | 37% | 1031 hPa | 0 mm | 0.45 m/s, 55° | - | - |
| 1777543731 | 17.78° C | 36% | 1031.1 hPa | 0 mm | 0 m/s | - | - |
| 1777543132 | 16.67° C | 37% | 1030.9 hPa | 0 mm | 0.45 m/s, 196° | - | - |
* Rain latest hour (hover to see other rain measurements)
** Current wind speed in m/s (hover to see current wind gust speed)